Haines, Alaska
Current Conditions -  °F | °C
As of 12:13 AM on Monday 20 Oct 2014 (Local Time) from PAHN Reporting Station
Overcast Overcast  
Wind Chill: 41°   Ceiling: 1100
Heat Index: 46°   Visibility: 10mi
Dew Point: 43°   Wind: 12mph
Humidity: 89%   Direction: 80°E
Pressure: 29.21"   Gusts: 21mph
Location:  59.24°N, 135.45°W
Report Text: PAHN 200813Z AUTO 08010G18KT 10SM OVC011 08/06 A2921 RMK AO2 T00780061 TSNO
Loading
Personal Weather Stations






























Interactive Weather Map
Tropical Storm Tracking
New forecast layout! Learn more

10-Day Weather Forecast

Advertisements
Track Severe Weather on mobile